Time;durP1;ratioP1;P1;durP2;ratioP2;P2;SDS_P1;SDS_P2;PMS_P1;PMS_P2;Temp;Humidity;BMP_temperature;BMP_pressure;BME280_temperature;BME280_humidity;BME280_pressure;Samples;Min_cycle;Max_cycle;Signal;HPM_P1;HPM_P2
2023/12/13 00:01:31;;;;;;;;;;;8.10;99.90;;;;;;5011733;28;19925;-72
2023/12/13 00:04:00;;;;;;;;;;;8.30;99.90;;;;;;4995964;28;19921;-68
2023/12/13 00:06:28;;;;;;;;;;;8.30;99.90;;;;;;5011309;28;20384;-68
2023/12/13 00:08:56;;;;;;;;;;;8.40;99.90;;;;;;5011036;28;19928;-68
2023/12/13 00:11:24;;;;;;;;;;;8.40;99.90;;;;;;5011574;28;19972;-69
2023/12/13 00:13:52;;;;;;;;;;;8.40;99.90;;;;;;5001656;28;19925;-71
2023/12/13 00:16:21;;;;;;;;;;;8.40;99.90;;;;;;4998315;28;20541;-68
2023/12/13 00:18:47;;;;;;;;;;;8.40;99.90;;;;;;5010970;28;19922;-68
2023/12/13 00:21:17;;;;;;;;;;;8.50;99.90;;;;;;5011503;28;19976;-67
2023/12/13 00:23:46;;;;;;;;;;;8.60;99.90;;;;;;5011098;28;20394;-66
2023/12/13 00:26:15;;;;;;;;;;;8.70;99.90;;;;;;5011294;28;19921;-72
2023/12/13 00:28:43;;;;;;;;;;;8.80;99.90;;;;;;5011191;28;19928;-70
2023/12/13 00:31:11;;;;;;;;;;;8.90;99.90;;;;;;5011509;28;20336;-69
2023/12/13 00:33:39;;;;;;;;;;;8.90;99.90;;;;;;5011020;28;20269;-70
2023/12/13 00:36:07;;;;;;;;;;;8.90;99.90;;;;;;5011313;28;19975;-68
2023/12/13 00:38:36;;;;;;;;;;;8.90;99.90;;;;;;5011104;28;20339;-68
2023/12/13 00:41:04;;;;;;;;;;;8.80;99.90;;;;;;4996277;28;19972;-69
2023/12/13 00:43:32;;;;;;;;;;;8.80;99.90;;;;;;5004328;28;19921;-69
2023/12/13 00:46:00;;;;;;;;;;;8.90;99.90;;;;;;4999111;28;19964;-69
2023/12/13 00:48:28;;;;;;;;;;;8.90;99.90;;;;;;5006702;28;19921;-69
2023/12/13 00:50:56;;;;;;;;;;;8.90;99.90;;;;;;5010906;28;19967;-70
2023/12/13 00:53:23;;;;;;;;;;;8.90;99.90;;;;;;5010994;28;19929;-72
2023/12/13 00:55:53;;;;;;;;;;;8.80;99.90;;;;;;5010512;28;19925;-69
2023/12/13 00:58:21;;;;;;;;;;;8.90;99.90;;;;;;5006076;28;20039;-67
2023/12/13 01:00:49;;;;;;;;;;;8.80;99.90;;;;;;5010881;28;19925;-68
2023/12/13 01:03:17;;;;;;;;;;;8.80;99.90;;;;;;5011103;28;19921;-69
2023/12/13 01:05:45;;;;;;;;;;;8.90;99.90;;;;;;5010944;28;19948;-69
2023/12/13 01:08:13;;;;;;;;;;;8.80;99.90;;;;;;5010746;28;19921;-70
2023/12/13 01:10:41;;;;;;;;;;;8.80;99.90;;;;;;5010953;28;19925;-69
2023/12/13 01:13:10;;;;;;;;;;;8.90;99.90;;;;;;5007406;28;19933;-70
2023/12/13 01:15:38;;;;;;;;;;;9.00;99.90;;;;;;4990978;28;20012;-72
2023/12/13 01:18:05;;;;;;;;;;;9.00;99.90;;;;;;4995214;28;19925;-69
2023/12/13 01:20:34;;;;;;;;;;;8.90;99.90;;;;;;5013021;28;19921;-69
2023/12/13 01:23:01;;;;;;;;;;;9.00;99.90;;;;;;5014355;28;19925;-69
2023/12/13 01:25:29;;;;;;;;;;;9.00;99.90;;;;;;5014359;28;19975;-71
2023/12/13 01:27:57;;;;;;;;;;;8.90;99.90;;;;;;5012001;28;19921;-69
2023/12/13 01:30:27;;;;;;;;;;;8.90;99.90;;;;;;5014538;28;19999;-72
2023/12/13 01:32:55;;;;;;;;;;;8.90;99.90;;;;;;5014175;28;19928;-69
2023/12/13 01:35:22;;;;;;;;;;;8.80;99.90;;;;;;5006132;28;20296;-69
2023/12/13 01:37:50;;;;;;;;;;;8.80;99.90;;;;;;5013793;28;19967;-68
2023/12/13 01:40:18;;;;;;;;;;;8.80;99.90;;;;;;5014190;28;19933;-70
2023/12/13 01:42:46;;;;;;;;;;;8.80;99.90;;;;;;5013491;28;20009;-72
2023/12/13 01:45:14;;;;;;;;;;;8.80;99.90;;;;;;4994308;28;20389;-69
2023/12/13 01:47:43;;;;;;;;;;;8.80;99.90;;;;;;5002203;28;20396;-69
2023/12/13 01:50:11;;;;;;;;;;;8.70;99.90;;;;;;5014237;28;19922;-71
2023/12/13 01:52:39;;;;;;;;;;;8.70;99.90;;;;;;5010501;28;19925;-71
2023/12/13 01:55:08;;;;;;;;;;;8.70;99.90;;;;;;4997835;28;19921;-68
2023/12/13 01:57:37;;;;;;;;;;;8.70;99.90;;;;;;5013611;28;20301;-69
2023/12/13 02:00:05;;;;;;;;;;;8.70;99.90;;;;;;5013644;28;19922;-68
2023/12/13 02:02:33;;;;;;;;;;;8.80;99.90;;;;;;5014024;28;20462;-68
2023/12/13 02:05:03;;;;;;;;;;;8.80;99.90;;;;;;5013376;28;19922;-67
2023/12/13 02:07:30;;;;;;;;;;;8.80;99.90;;;;;;5013492;28;20479;-68
2023/12/13 02:09:59;;;;;;;;;;;9.00;99.90;;;;;;5013535;28;20427;-67
2023/12/13 02:12:26;;;;;;;;;;;8.90;99.90;;;;;;5013720;28;19925;-68
2023/12/13 02:14:55;;;;;;;;;;;8.90;99.90;;;;;;4995272;28;19922;-68
2023/12/13 02:17:23;;;;;;;;;;;8.90;99.90;;;;;;5007181;28;19943;-68
2023/12/13 02:19:51;;;;;;;;;;;8.80;99.90;;;;;;5013308;28;19921;-68
2023/12/13 02:22:20;;;;;;;;;;;8.70;99.90;;;;;;5014181;28;20292;-69
2023/12/13 02:24:49;;;;;;;;;;;8.80;99.90;;;;;;5012621;28;19921;-68
2023/12/13 02:27:17;;;;;;;;;;;8.70;99.90;;;;;;5006081;28;19921;-72
2023/12/13 02:29:47;;;;;;;;;;;8.70;99.90;;;;;;5013606;28;19925;-76
2023/12/13 02:32:15;;;;;;;;;;;8.70;99.90;;;;;;5012616;28;19967;-68
2023/12/13 02:34:43;;;;;;;;;;;8.70;99.90;;;;;;5013160;28;19929;-73
2023/12/13 02:37:11;;;;;;;;;;;8.70;99.90;;;;;;5013077;28;19921;-68
2023/12/13 02:39:41;;;;;;;;;;;8.70;99.90;;;;;;5013251;28;20389;-68
2023/12/13 02:42:09;;;;;;;;;;;8.70;99.90;;;;;;5013003;28;19971;-68
2023/12/13 02:44:38;;;;;;;;;;;8.60;99.90;;;;;;4997334;28;19980;-67
2023/12/13 02:47:06;;;;;;;;;;;8.50;99.90;;;;;;5003879;28;20380;-68
2023/12/13 02:49:34;;;;;;;;;;;8.50;99.90;;;;;;5013131;28;19929;-71
2023/12/13 02:52:02;;;;;;;;;;;8.60;99.90;;;;;;5013180;28;19929;-68
2023/12/13 02:54:29;;;;;;;;;;;8.50;99.90;;;;;;5012919;28;19975;-67
2023/12/13 02:56:58;;;;;;;;;;;8.50;99.90;;;;;;5012205;28;20297;-70
2023/12/13 02:59:27;;;;;;;;;;;8.40;99.90;;;;;;5012742;28;19929;-68
2023/12/13 03:01:55;;;;;;;;;;;8.30;99.90;;;;;;5012482;28;19928;-66
2023/12/13 03:04:23;;;;;;;;;;;8.20;99.90;;;;;;5012570;28;19922;-71
2023/12/13 03:06:50;;;;;;;;;;;8.20;99.90;;;;;;5012340;28;19929;-68
2023/12/13 03:09:18;;;;;;;;;;;8.30;99.90;;;;;;5012595;28;20401;-68
2023/12/13 03:11:46;;;;;;;;;;;8.30;99.90;;;;;;5012565;28;20347;-68
2023/12/13 03:14:15;;;;;;;;;;;8.40;99.90;;;;;;5008130;28;19925;-69
2023/12/13 03:16:43;;;;;;;;;;;8.50;99.90;;;;;;4999948;28;19928;-68
2023/12/13 03:19:10;;;;;;;;;;;8.50;99.90;;;;;;5012027;28;19921;-68
2023/12/13 03:21:38;;;;;;;;;;;8.50;99.90;;;;;;5012432;28;19929;-67
2023/12/13 03:24:06;;;;;;;;;;;8.50;99.90;;;;;;5012226;28;19925;-68
2023/12/13 03:26:34;;;;;;;;;;;8.40;99.90;;;;;;5011964;28;19925;-69
2023/12/13 03:29:02;;;;;;;;;;;8.50;99.90;;;;;;5012034;28;19921;-67
2023/12/13 03:31:31;;;;;;;;;;;8.40;99.90;;;;;;5012240;28;20381;-68
2023/12/13 03:34:00;;;;;;;;;;;8.50;99.90;;;;;;5011933;28;20014;-67
2023/12/13 03:36:28;;;;;;;;;;;8.50;99.90;;;;;;5011810;28;19922;-70
2023/12/13 03:38:56;;;;;;;;;;;8.60;99.90;;;;;;5011672;28;19949;-67
2023/12/13 03:41:24;;;;;;;;;;;8.60;99.90;;;;;;5011933;28;19929;-68
2023/12/13 03:43:52;;;;;;;;;;;8.60;99.90;;;;;;5001348;28;19928;-72
2023/12/13 03:46:21;;;;;;;;;;;8.60;99.90;;;;;;4995941;28;20388;-68
2023/12/13 03:48:50;;;;;;;;;;;8.70;99.90;;;;;;5011860;28;19969;-70
2023/12/13 03:51:18;;;;;;;;;;;8.70;99.90;;;;;;5011592;28;20400;-67
2023/12/13 03:53:46;;;;;;;;;;;8.80;99.90;;;;;;5011813;28;19921;-67
2023/12/13 03:56:14;;;;;;;;;;;8.80;99.90;;;;;;5011330;28;19984;-68
2023/12/13 03:58:41;;;;;;;;;;;8.80;99.90;;;;;;5012086;28;19925;-69
2023/12/13 04:01:09;;;;;;;;;;;8.80;99.90;;;;;;5011599;28;20372;-68
2023/12/13 04:03:37;;;;;;;;;;;8.90;99.90;;;;;;5011641;28;19921;-68
2023/12/13 04:06:07;;;;;;;;;;;8.80;99.90;;;;;;5011081;28;19969;-68
2023/12/13 04:08:35;;;;;;;;;;;8.80;99.90;;;;;;5011534;28;19925;-69
2023/12/13 04:11:02;;;;;;;;;;;8.80;99.90;;;;;;5011482;28;19944;-67
2023/12/13 04:13:30;;;;;;;;;;;8.70;99.90;;;;;;5005043;28;19921;-71
2023/12/13 04:15:58;;;;;;;;;;;8.80;99.90;;;;;;4999846;28;19921;-66
2023/12/13 04:18:25;;;;;;;;;;;8.80;99.90;;;;;;5011256;28;19983;-68
2023/12/13 04:20:53;;;;;;;;;;;8.80;99.90;;;;;;5011369;28;19921;-68
2023/12/13 04:23:23;;;;;;;;;;;8.90;99.90;;;;;;5011403;28;19925;-68
2023/12/13 04:25:51;;;;;;;;;;;8.90;99.90;;;;;;5003975;28;19926;-68
2023/12/13 04:28:19;;;;;;;;;;;9.00;99.90;;;;;;5010857;28;20008;-71
2023/12/13 04:30:47;;;;;;;;;;;9.10;99.90;;;;;;5011414;28;19952;-69
2023/12/13 04:33:18;;;;;;;;;;;9.20;99.90;;;;;;5006664;28;19926;-68
2023/12/13 04:35:46;;;;;;;;;;;9.20;99.90;;;;;;5011213;28;20000;-69
2023/12/13 04:38:14;;;;;;;;;;;9.30;99.90;;;;;;5010868;28;20384;-68
2023/12/13 04:40:43;;;;;;;;;;;9.30;99.90;;;;;;5011289;28;19921;-72
2023/12/13 04:43:10;;;;;;;;;;;9.30;99.90;;;;;;5007311;28;19922;-68
2023/12/13 04:45:38;;;;;;;;;;;9.40;99.90;;;;;;4991431;28;19928;-68
2023/12/13 04:48:06;;;;;;;;;;;9.40;99.90;;;;;;5008573;28;20380;-70
2023/12/13 04:50:34;;;;;;;;;;;9.30;99.90;;;;;;5011320;28;20404;-69
2023/12/13 04:53:02;;;;;;;;;;;9.30;99.90;;;;;;5005370;28;19979;-67
2023/12/13 04:55:30;;;;;;;;;;;9.30;99.90;;;;;;5013316;28;20007;-68
2023/12/13 04:57:59;;;;;;;;;;;9.40;99.90;;;;;;5014814;28;20402;-67
2023/12/13 05:00:27;;;;;;;;;;;9.40;99.90;;;;;;4991683;28;19929;-68
2023/12/13 05:02:55;;;;;;;;;;;9.50;99.90;;;;;;5014982;28;19932;-69
2023/12/13 05:05:23;;;;;;;;;;;9.50;99.90;;;;;;5014512;28;20021;-70
2023/12/13 05:07:50;;;;;;;;;;;9.50;99.90;;;;;;5014717;28;20346;-67
2023/12/13 05:10:18;;;;;;;;;;;9.40;99.90;;;;;;5014593;28;19921;-67
2023/12/13 05:12:46;;;;;;;;;;;9.30;99.90;;;;;;5014219;28;19925;-67
2023/12/13 05:15:15;;;;;;;;;;;9.20;99.90;;;;;;4994912;28;20277;-67
2023/12/13 05:17:44;;;;;;;;;;;9.20;99.90;;;;;;5008976;28;20304;-67
2023/12/13 05:20:12;;;;;;;;;;;9.20;99.90;;;;;;5014601;28;20285;-67
2023/12/13 05:22:40;;;;;;;;;;;9.20;99.90;;;;;;5014601;28;20011;-68
2023/12/13 05:25:08;;;;;;;;;;;9.20;99.90;;;;;;5014330;28;20074;-67
2023/12/13 05:27:36;;;;;;;;;;;9.30;99.90;;;;;;5014187;28;19971;-67
2023/12/13 05:30:04;;;;;;;;;;;9.30;99.90;;;;;;5014317;28;19937;-66
2023/12/13 05:32:33;;;;;;;;;;;9.20;99.90;;;;;;5014430;28;19925;-66
2023/12/13 05:35:01;;;;;;;;;;;9.30;99.90;;;;;;5014439;28;20016;-67
2023/12/13 05:37:28;;;;;;;;;;;9.30;99.90;;;;;;4998220;28;19929;-69
2023/12/13 05:39:56;;;;;;;;;;;9.20;99.90;;;;;;5009152;28;19957;-68
2023/12/13 05:42:24;;;;;;;;;;;9.20;99.90;;;;;;5013241;28;19922;-66
2023/12/13 05:44:52;;;;;;;;;;;9.20;99.90;;;;;;4992266;28;19941;-64
2023/12/13 05:47:20;;;;;;;;;;;9.10;99.90;;;;;;4979520;28;20277;-67
2023/12/13 05:49:49;;;;;;;;;;;9.00;99.90;;;;;;4982335;28;19938;-65
2023/12/13 05:52:18;;;;;;;;;;;8.90;99.90;;;;;;4982933;28;19937;-69
2023/12/13 05:54:46;;;;;;;;;;;8.80;99.90;;;;;;4983441;28;19930;-66
2023/12/13 05:57:13;;;;;;;;;;;8.80;99.90;;;;;;4982675;28;19945;-67
2023/12/13 05:59:42;;;;;;;;;;;8.70;99.90;;;;;;4982389;28;20247;-67
2023/12/13 06:02:09;;;;;;;;;;;8.70;99.90;;;;;;4982525;28;19968;-66
2023/12/13 06:04:40;;;;;;;;;;;8.70;99.90;;;;;;4982702;28;20528;-66
2023/12/13 06:07:10;;;;;;;;;;;8.60;99.90;;;;;;4981087;28;20409;-68
2023/12/13 06:09:38;;;;;;;;;;;8.60;99.90;;;;;;4982432;28;20015;-65
2023/12/13 06:12:05;;;;;;;;;;;8.60;99.90;;;;;;4982188;28;20408;-68
2023/12/13 06:14:33;;;;;;;;;;;8.50;99.90;;;;;;4981520;28;19926;-65
2023/12/13 06:17:01;;;;;;;;;;;8.40;99.90;;;;;;4981943;28;19937;-67
2023/12/13 06:19:29;;;;;;;;;;;8.40;99.90;;;;;;4982725;28;20401;-67
2023/12/13 06:21:57;;;;;;;;;;;8.30;99.90;;;;;;4982642;28;19926;-66
2023/12/13 06:24:26;;;;;;;;;;;8.30;99.90;;;;;;4981873;28;20336;-69
2023/12/13 06:26:54;;;;;;;;;;;8.20;99.90;;;;;;4981970;28;19922;-67
2023/12/13 06:29:22;;;;;;;;;;;8.10;99.90;;;;;;4981501;28;19929;-66
2023/12/13 06:31:49;;;;;;;;;;;8.10;99.90;;;;;;4981796;28;20589;-68
2023/12/13 06:34:17;;;;;;;;;;;8.10;99.90;;;;;;4982200;28;20312;-66
2023/12/13 06:36:45;;;;;;;;;;;8.10;99.90;;;;;;4981968;28;19980;-65
2023/12/13 06:39:13;;;;;;;;;;;8.20;99.90;;;;;;4975204;28;20547;-65
2023/12/13 06:41:42;;;;;;;;;;;8.20;99.90;;;;;;4982257;28;19929;-68
2023/12/13 06:44:10;;;;;;;;;;;8.30;99.90;;;;;;4981286;28;20678;-64
2023/12/13 06:46:37;;;;;;;;;;;8.40;99.90;;;;;;4982088;28;20004;-63
2023/12/13 06:49:05;;;;;;;;;;;8.30;99.90;;;;;;4981642;28;19961;-63
2023/12/13 06:51:33;;;;;;;;;;;8.20;99.90;;;;;;4982160;28;19933;-64
2023/12/13 06:54:01;;;;;;;;;;;8.20;99.90;;;;;;4981686;28;19936;-66
2023/12/13 06:56:29;;;;;;;;;;;8.20;99.90;;;;;;4981255;28;19936;-64
2023/12/13 06:59:00;;;;;;;;;;;8.20;99.90;;;;;;4981118;28;19988;-65
2023/12/13 07:01:27;;;;;;;;;;;8.10;99.90;;;;;;4981733;28;20469;-63
2023/12/13 07:03:55;;;;;;;;;;;8.10;99.90;;;;;;4982087;28;19928;-65
2023/12/13 07:06:23;;;;;;;;;;;7.90;99.90;;;;;;4981651;28;20296;-65
2023/12/13 07:08:54;;;;;;;;;;;7.90;99.90;;;;;;4982273;28;19922;-64
2023/12/13 07:11:22;;;;;;;;;;;7.90;99.90;;;;;;4981374;28;19952;-63
2023/12/13 07:13:50;;;;;;;;;;;7.90;99.90;;;;;;4982035;28;19929;-67
2023/12/13 07:16:19;;;;;;;;;;;7.90;99.90;;;;;;4981067;28;19930;-65
2023/12/13 07:18:46;;;;;;;;;;;8.00;99.90;;;;;;4982040;28;20324;-66
2023/12/13 07:21:20;;;;;;;;;;;7.90;99.90;;;;;;4981472;28;19930;-65
2023/12/13 07:23:48;;;;;;;;;;;7.90;99.90;;;;;;4981189;28;19935;-66
2023/12/13 07:26:16;;;;;;;;;;;7.70;99.90;;;;;;4985800;28;19922;-65
2023/12/13 07:28:44;;;;;;;;;;;7.80;99.90;;;;;;4995493;28;19933;-65
2023/12/13 07:31:12;;;;;;;;;;;7.80;99.90;;;;;;5001270;28;20037;-66
2023/12/13 07:33:41;;;;;;;;;;;7.90;99.90;;;;;;5006556;28;20031;-64
2023/12/13 07:36:11;;;;;;;;;;;7.90;99.90;;;;;;5011724;28;20117;-63
2023/12/13 07:38:41;;;;;;;;;;;7.90;99.90;;;;;;5002493;28;19921;-64
2023/12/13 07:41:09;;;;;;;;;;;7.90;99.90;;;;;;5011928;28;19933;-64
2023/12/13 07:43:37;;;;;;;;;;;7.90;99.90;;;;;;5004357;28;20003;-66
2023/12/13 07:46:05;;;;;;;;;;;7.90;99.90;;;;;;4992024;28;20336;-63
2023/12/13 07:48:33;;;;;;;;;;;7.90;99.90;;;;;;5010791;28;20399;-65
2023/12/13 07:51:03;;;;;;;;;;;7.80;99.90;;;;;;5011799;28;20016;-65
2023/12/13 07:53:30;;;;;;;;;;;7.80;99.90;;;;;;5011687;28;19921;-64
2023/12/13 07:55:58;;;;;;;;;;;7.80;99.90;;;;;;5005432;28;19926;-65
2023/12/13 07:58:26;;;;;;;;;;;7.80;99.90;;;;;;5009663;28;19921;-64
2023/12/13 08:00:54;;;;;;;;;;;7.80;99.90;;;;;;5012226;28;19925;-65
2023/12/13 08:03:22;;;;;;;;;;;7.80;99.90;;;;;;5011334;28;20435;-65
2023/12/13 08:05:49;;;;;;;;;;;7.80;99.90;;;;;;5011540;28;19925;-65
2023/12/13 08:08:18;;;;;;;;;;;7.80;99.90;;;;;;5011167;28;20399;-63
2023/12/13 08:10:46;;;;;;;;;;;7.90;99.90;;;;;;5011771;28;20295;-65
2023/12/13 08:13:15;;;;;;;;;;;7.80;99.90;;;;;;5007227;28;19922;-65
2023/12/13 08:15:44;;;;;;;;;;;7.80;99.90;;;;;;4999925;28;19957;-64
2023/12/13 08:18:12;;;;;;;;;;;7.80;99.90;;;;;;5007110;28;19961;-65
2023/12/13 08:20:40;;;;;;;;;;;7.80;99.90;;;;;;5011379;28;19922;-64
2023/12/13 08:23:07;;;;;;;;;;;7.80;99.90;;;;;;5011579;28;19921;-64
2023/12/13 08:25:38;;;;;;;;;;;7.80;99.90;;;;;;5010906;28;20364;-65
2023/12/13 08:28:06;;;;;;;;;;;7.80;99.90;;;;;;5011412;28;19960;-65
2023/12/13 08:30:33;;;;;;;;;;;7.80;99.90;;;;;;5016115;28;19922;-65
2023/12/13 08:33:01;;;;;;;;;;;7.90;99.90;;;;;;5018105;28;19956;-65
2023/12/13 08:35:29;;;;;;;;;;;7.90;99.90;;;;;;5017629;28;19925;-66
2023/12/13 08:37:57;;;;;;;;;;;7.90;99.90;;;;;;5017682;28;19921;-63
2023/12/13 08:40:25;;;;;;;;;;;7.90;99.90;;;;;;5018054;28;19928;-65
2023/12/13 08:42:54;;;;;;;;;;;7.80;99.90;;;;;;5016362;28;20008;-64
2023/12/13 08:45:22;;;;;;;;;;;7.80;99.90;;;;;;4997977;28;19930;-65
2023/12/13 08:47:50;;;;;;;;;;;7.80;99.90;;;;;;5010378;28;20027;-66
2023/12/13 08:50:17;;;;;;;;;;;7.80;99.90;;;;;;5017823;28;20009;-65
2023/12/13 08:52:45;;;;;;;;;;;7.80;99.90;;;;;;5017981;28;20343;-64
2023/12/13 08:55:14;;;;;;;;;;;7.80;99.90;;;;;;5017631;28;19928;-64
2023/12/13 08:57:42;;;;;;;;;;;7.80;99.90;;;;;;5017017;28;19921;-65
2023/12/13 09:00:12;;;;;;;;;;;7.70;99.90;;;;;;5017865;28;19928;-64
2023/12/13 09:02:39;;;;;;;;;;;7.80;99.90;;;;;;5017577;28;19928;-64
2023/12/13 09:05:08;;;;;;;;;;;7.80;99.90;;;;;;5017548;28;20019;-66
2023/12/13 09:07:35;;;;;;;;;;;7.80;99.90;;;;;;5009051;28;19925;-64
2023/12/13 09:10:04;;;;;;;;;;;7.90;99.90;;;;;;5017660;28;19921;-65
2023/12/13 09:12:32;;;;;;;;;;;7.90;99.90;;;;;;5017678;28;19956;-65
2023/12/13 09:14:59;;;;;;;;;;;8.00;99.90;;;;;;4999076;28;19960;-65
2023/12/13 09:17:30;;;;;;;;;;;8.10;99.90;;;;;;5006314;28;19921;-65
2023/12/13 09:19:58;;;;;;;;;;;8.10;99.90;;;;;;5017630;28;20363;-65
2023/12/13 09:22:26;;;;;;;;;;;8.10;99.90;;;;;;5017249;28;19928;-65
2023/12/13 09:24:53;;;;;;;;;;;8.10;99.90;;;;;;5017505;28;20228;-63
2023/12/13 09:27:22;;;;;;;;;;;8.20;99.90;;;;;;5016972;28;19929;-64
2023/12/13 09:29:50;;;;;;;;;;;8.30;99.90;;;;;;5001891;28;19929;-66
2023/12/13 09:32:18;;;;;;;;;;;8.30;99.90;;;;;;5017618;28;20447;-67
2023/12/13 09:34:47;;;;;;;;;;;8.40;99.90;;;;;;5017597;28;20344;-65
2023/12/13 09:37:15;;;;;;;;;;;8.40;99.90;;;;;;5016849;28;20015;-65
2023/12/13 09:39:45;;;;;;;;;;;8.50;99.90;;;;;;5017424;28;19937;-65
2023/12/13 09:42:15;;;;;;;;;;;8.60;99.90;;;;;;5014704;28;20479;-65
2023/12/13 09:44:44;;;;;;;;;;;8.80;99.90;;;;;;4999999;28;19980;-66
2023/12/13 09:47:14;;;;;;;;;;;9.10;99.90;;;;;;5005651;28;20308;-65
2023/12/13 09:49:42;;;;;;;;;;;9.50;99.90;;;;;;5013677;28;19928;-65
2023/12/13 09:52:11;;;;;;;;;;;9.90;99.90;;;;;;5014149;28;19928;-65
2023/12/13 09:54:40;;;;;;;;;;;10.10;99.90;;;;;;5013795;28;20359;-67
2023/12/13 09:57:08;;;;;;;;;;;10.10;99.90;;;;;;5013432;28;19927;-64
2023/12/13 09:59:36;;;;;;;;;;;10.10;99.90;;;;;;5014477;28;19921;-64
2023/12/13 10:02:06;;;;;;;;;;;10.10;99.90;;;;;;5013867;28;20410;-66
2023/12/13 10:04:33;;;;;;;;;;;10.00;99.90;;;;;;5013597;28;20048;-65
2023/12/13 10:07:01;;;;;;;;;;;10.00;99.90;;;;;;5013389;28;19925;-66
2023/12/13 10:09:31;;;;;;;;;;;10.10;99.90;;;;;;5013672;28;19947;-64
2023/12/13 10:11:59;;;;;;;;;;;10.20;99.90;;;;;;5013796;28;19975;-65
2023/12/13 10:14:27;;;;;;;;;;;10.10;99.90;;;;;;4999720;28;20005;-66
2023/12/13 10:16:55;;;;;;;;;;;10.10;99.90;;;;;;4997240;28;19991;-65
2023/12/13 10:19:38;;;;;;;;;;;10.00;99.90;;;;;;5013516;28;19922;-64
2023/12/13 10:22:06;;;;;;;;;;;9.90;99.90;;;;;;5013943;28;20324;-64
2023/12/13 10:24:35;;;;;;;;;;;9.80;99.90;;;;;;5013176;28;19921;-64
2023/12/13 10:27:03;;;;;;;;;;;9.80;99.90;;;;;;5012954;28;19921;-66
2023/12/13 10:29:31;;;;;;;;;;;9.80;99.90;;;;;;5013344;28;19929;-66
2023/12/13 10:31:59;;;;;;;;;;;9.80;99.90;;;;;;5013446;28;20352;-65
2023/12/13 10:34:27;;;;;;;;;;;9.80;99.90;;;;;;5013342;28;19925;-64
2023/12/13 10:36:55;;;;;;;;;;;9.80;99.90;;;;;;4996816;28;20395;-64
2023/12/13 10:39:23;;;;;;;;;;;9.70;99.90;;;;;;5013289;28;19925;-65
2023/12/13 10:41:55;;;;;;;;;;;9.60;99.90;;;;;;5012790;28;19929;-66
2023/12/13 10:44:23;;;;;;;;;;;9.60;99.90;;;;;;5006850;28;19921;-65
2023/12/13 10:46:56;;;;;;;;;;;9.60;99.90;;;;;;4996243;28;20045;-65
2023/12/13 10:49:25;;;;;;;;;;;9.70;99.90;;;;;;5012872;28;19926;-63
2023/12/13 10:51:53;;;;;;;;;;;10.10;99.90;;;;;;5012583;28;19921;-66
2023/12/13 10:54:21;;;;;;;;;;;10.40;99.90;;;;;;5012654;28;19922;-66
2023/12/13 10:56:48;;;;;;;;;;;10.60;99.90;;;;;;5012312;28;19932;-67
2023/12/13 10:59:18;;;;;;;;;;;10.60;99.90;;;;;;5012657;28;19925;-64
2023/12/13 11:01:46;;;;;;;;;;;10.60;99.90;;;;;;5012658;28;19921;-65
2023/12/13 11:04:16;;;;;;;;;;;10.70;99.90;;;;;;5012747;28;19968;-65
2023/12/13 11:06:45;;;;;;;;;;;11.00;99.90;;;;;;5012077;28;19921;-64
2023/12/13 11:09:14;;;;;;;;;;;11.30;99.90;;;;;;5012754;28;19921;-66
2023/12/13 11:11:42;;;;;;;;;;;11.60;99.90;;;;;;5012704;28;19922;-65
2023/12/13 11:14:11;;;;;;;;;;;11.70;99.90;;;;;;5000836;28;19922;-65
2023/12/13 11:16:42;;;;;;;;;;;11.60;99.90;;;;;;4993123;28;19928;-64
2023/12/13 11:19:11;;;;;;;;;;;11.50;99.90;;;;;;5012358;28;19921;-65
2023/12/13 11:21:41;;;;;;;;;;;11.60;99.90;;;;;;5012421;28;20041;-65
2023/12/13 11:24:09;;;;;;;;;;;12.00;99.90;;;;;;5012429;28;20296;-64
2023/12/13 11:26:37;;;;;;;;;;;12.20;99.90;;;;;;5012102;28;19928;-64
2023/12/13 11:29:13;;;;;;;;;;;12.40;99.90;;;;;;5012669;28;20351;-65
2023/12/13 11:31:49;;;;;;;;;;;12.70;99.90;;;;;;5012125;28;19928;-66
2023/12/13 11:34:18;;;;;;;;;;;12.60;99.90;;;;;;4994738;28;19925;-65
2023/12/13 11:36:46;;;;;;;;;;;12.70;99.90;;;;;;5011582;28;20008;-66
2023/12/13 11:39:14;;;;;;;;;;;12.60;99.90;;;;;;5012192;28;19925;-65
2023/12/13 11:41:41;;;;;;;;;;;12.30;99.90;;;;;;5012142;28;19944;-65
2023/12/13 11:44:10;;;;;;;;;;;12.00;99.90;;;;;;5004698;28;19921;-67
2023/12/13 11:46:38;;;;;;;;;;;12.20;99.90;;;;;;4995338;28;19922;-65
2023/12/13 11:49:07;;;;;;;;;;;12.70;99.90;;;;;;5011947;28;19929;-65
2023/12/13 11:51:34;;;;;;;;;;;13.30;99.90;;;;;;5012084;28;19929;-65
2023/12/13 11:54:02;;;;;;;;;;;13.70;99.90;;;;;;5012054;28;19991;-65
2023/12/13 11:56:30;;;;;;;;;;;13.60;99.90;;;;;;5011689;28;19925;-64
2023/12/13 11:59:00;;;;;;;;;;;13.40;99.90;;;;;;5011423;28;19944;-66
2023/12/13 12:01:29;;;;;;;;;;;13.50;99.90;;;;;;5011822;28;19921;-65
2023/12/13 12:03:57;;;;;;;;;;;13.30;99.90;;;;;;5010928;28;20392;-65
2023/12/13 12:06:26;;;;;;;;;;;13.00;99.90;;;;;;5011525;28;19925;-65
2023/12/13 12:08:54;;;;;;;;;;;12.80;99.90;;;;;;5011350;28;20037;-67
2023/12/13 12:11:22;;;;;;;;;;;12.90;99.90;;;;;;5011593;28;19921;-65
2023/12/13 12:13:51;;;;;;;;;;;12.80;99.90;;;;;;5002623;28;19922;-65
2023/12/13 12:16:19;;;;;;;;;;;12.60;99.90;;;;;;4997188;28;19928;-65
2023/12/13 12:18:47;;;;;;;;;;;12.40;99.90;;;;;;5011303;28;19989;-66
2023/12/13 12:21:15;;;;;;;;;;;12.30;99.90;;;;;;5011478;28;19972;-66
2023/12/13 12:23:44;;;;;;;;;;;12.20;99.90;;;;;;5011321;28;19979;-65
2023/12/13 12:26:13;;;;;;;;;;;12.10;99.90;;;;;;5007052;28;20316;-66
2023/12/13 12:28:41;;;;;;;;;;;11.80;99.90;;;;;;5007772;28;20316;-65
2023/12/13 12:31:09;;;;;;;;;;;11.70;99.90;;;;;;5011325;28;20012;-67
2023/12/13 12:33:43;;;;;;;;;;;11.70;99.90;;;;;;5011213;28;19972;-66
2023/12/13 12:36:11;;;;;;;;;;;11.60;99.90;;;;;;5011316;28;20016;-66
2023/12/13 12:38:39;;;;;;;;;;;11.30;99.90;;;;;;5011428;28;19925;-66
2023/12/13 12:41:09;;;;;;;;;;;11.20;99.90;;;;;;4995685;28;19976;-66
2023/12/13 12:43:37;;;;;;;;;;;11.00;99.90;;;;;;5004031;28;20386;-66
2023/12/13 12:46:05;;;;;;;;;;;10.90;99.90;;;;;;4991342;28;19922;-66
2023/12/13 12:48:33;;;;;;;;;;;10.80;99.90;;;;;;5006863;28;19936;-66
2023/12/13 12:51:01;;;;;;;;;;;10.80;99.90;;;;;;5011034;28;19960;-67
2023/12/13 12:53:29;;;;;;;;;;;10.80;99.90;;;;;;5011071;28;19921;-67
2023/12/13 12:55:57;;;;;;;;;;;10.70;99.90;;;;;;5011033;28;19922;-70
2023/12/13 12:58:28;;;;;;;;;;;10.70;99.90;;;;;;5011009;28;20410;-67
2023/12/13 13:00:56;;;;;;;;;;;10.70;99.90;;;;;;5011068;28;19921;-66
2023/12/13 13:03:26;;;;;;;;;;;10.80;99.90;;;;;;5010868;28;19925;-66
2023/12/13 13:05:54;;;;;;;;;;;10.80;99.90;;;;;;5010933;28;19927;-66
2023/12/13 13:08:21;;;;;;;;;;;10.90;99.90;;;;;;5010914;28;19972;-68
2023/12/13 13:10:49;;;;;;;;;;;10.90;99.90;;;;;;5011017;28;19983;-66
2023/12/13 13:13:17;;;;;;;;;;;10.90;99.90;;;;;;5006337;28;19929;-66
2023/12/13 13:15:46;;;;;;;;;;;10.90;99.90;;;;;;5000215;28;20396;-66
2023/12/13 13:18:14;;;;;;;;;;;11.00;99.90;;;;;;5014545;28;19925;-66
2023/12/13 13:20:42;;;;;;;;;;;11.20;99.90;;;;;;5014849;28;19922;-66
2023/12/13 13:23:10;;;;;;;;;;;11.30;99.90;;;;;;5014675;28;19921;-66
2023/12/13 13:25:38;;;;;;;;;;;11.30;99.90;;;;;;5014559;28;19968;-66
2023/12/13 13:28:06;;;;;;;;;;;11.40;99.90;;;;;;5014123;28;20442;-66
2023/12/13 13:30:34;;;;;;;;;;;11.30;99.90;;;;;;5014501;28;19937;-66
2023/12/13 13:33:03;;;;;;;;;;;11.20;99.90;;;;;;5014177;28;20023;-66
2023/12/13 13:35:31;;;;;;;;;;;11.10;99.90;;;;;;5014496;28;19925;-66
2023/12/13 13:37:59;;;;;;;;;;;11.10;99.90;;;;;;5014034;28;20383;-66
2023/12/13 13:40:27;;;;;;;;;;;11.10;99.90;;;;;;5014372;28;19961;-66
2023/12/13 13:42:55;;;;;;;;;;;11.20;99.90;;;;;;5011987;28;20602;-65
2023/12/13 13:45:23;;;;;;;;;;;11.20;99.90;;;;;;4994623;28;20004;-63
2023/12/13 13:47:51;;;;;;;;;;;11.10;99.90;;;;;;5010896;28;19925;-64
2023/12/13 13:50:20;;;;;;;;;;;10.90;99.90;;;;;;5014535;28;19953;-63
2023/12/13 13:52:48;;;;;;;;;;;10.80;99.90;;;;;;5013928;28;19921;-66
2023/12/13 13:55:16;;;;;;;;;;;10.60;99.90;;;;;;5014071;28;20117;-64
2023/12/13 13:57:44;;;;;;;;;;;10.60;99.90;;;;;;5013539;28;20281;-64
2023/12/13 14:00:13;;;;;;;;;;;10.50;99.90;;;;;;5013981;28;19983;-66
2023/12/13 14:02:44;;;;;;;;;;;10.50;99.90;;;;;;5013717;28;19925;-64
2023/12/13 14:05:12;;;;;;;;;;;10.40;99.90;;;;;;5013794;28;19921;-64
2023/12/13 14:07:41;;;;;;;;;;;10.40;99.90;;;;;;5013564;28;19921;-64
2023/12/13 14:10:09;;;;;;;;;;;10.40;99.90;;;;;;5013509;28;19929;-64
2023/12/13 14:12:37;;;;;;;;;;;10.40;99.90;;;;;;5013592;28;19921;-67
2023/12/13 14:15:06;;;;;;;;;;;10.50;99.90;;;;;;4996159;28;19976;-66
2023/12/13 14:17:34;;;;;;;;;;;10.40;99.90;;;;;;5013388;28;19971;-64
2023/12/13 14:20:04;;;;;;;;;;;10.50;99.90;;;;;;5013453;28;19953;-65
2023/12/13 14:22:32;;;;;;;;;;;10.40;99.90;;;;;;5013343;28;20388;-66
2023/12/13 14:25:01;;;;;;;;;;;10.40;99.90;;;;;;5013100;28;19921;-67
2023/12/13 14:27:29;;;;;;;;;;;10.50;99.90;;;;;;5012384;28;19953;-66
2023/12/13 14:29:56;;;;;;;;;;;10.50;99.90;;;;;;5013345;28;19922;-64
2023/12/13 14:32:25;;;;;;;;;;;10.50;99.90;;;;;;5013789;28;19970;-64